createdAt,value
2022-12-01T00:04:54.910Z,14.10
2022-12-01T00:10:16.299Z,12.80
2022-12-01T00:15:19.520Z,20.50
2022-12-01T00:20:22.396Z,17.50
2022-12-01T00:25:25.520Z,12.10
2022-12-01T00:30:28.471Z,12.40
2022-12-01T00:35:31.239Z,10.70
2022-12-01T00:40:34.046Z,9.70
2022-12-01T00:45:36.833Z,10.20
2022-12-01T00:50:39.692Z,11.50
2022-12-01T00:55:42.465Z,11.50
2022-12-01T01:00:45.321Z,13.70
2022-12-01T01:05:48.067Z,13.30
2022-12-01T01:10:50.991Z,10.60
2022-12-01T01:16:01.923Z,7.60
2022-12-01T01:21:07.948Z,8.60
2022-12-01T01:26:31.198Z,9.80
2022-12-01T01:31:34.907Z,10.70
2022-12-01T01:36:37.787Z,9.30
2022-12-01T01:41:40.590Z,12.70
2022-12-01T01:46:43.312Z,9.60
2022-12-01T01:51:51.574Z,10.00
2022-12-01T01:56:57.421Z,8.40
2022-12-01T02:02:03.598Z,8.70
2022-12-01T02:07:08.649Z,7.40
2022-12-01T02:12:33.442Z,8.50
2022-12-01T02:17:54.730Z,9.10
2022-12-01T02:23:12.414Z,8.30
2022-12-01T02:28:27.472Z,7.60
2022-12-01T02:33:41.783Z,12.40
2022-12-01T02:39:02.363Z,7.50
2022-12-01T02:44:24.012Z,5.80
2022-12-01T02:49:32.647Z,6.80
2022-12-01T02:54:36.580Z,7.90
2022-12-01T02:59:42.537Z,13.60
2022-12-01T03:05:03.740Z,11.10
2022-12-01T03:10:17.192Z,8.10
2022-12-01T03:15:37.294Z,6.20
2022-12-01T03:21:10.169Z,10.00
2022-12-01T03:26:17.031Z,6.40
2022-12-01T03:31:30.827Z,7.80
2022-12-01T03:36:38.143Z,5.80
2022-12-01T03:41:49.187Z,7.80
2022-12-01T03:46:56.924Z,7.10
2022-12-01T03:52:18.364Z,6.70
2022-12-01T03:57:29.636Z,10.70
2022-12-01T04:02:32.704Z,10.00
2022-12-01T04:07:39.687Z,12.30
2022-12-01T04:12:42.498Z,10.00
2022-12-01T04:17:46.030Z,7.50
2022-12-01T04:22:49.165Z,9.80
2022-12-01T04:27:52.166Z,9.40
2022-12-01T04:32:54.926Z,10.50
2022-12-01T04:37:57.786Z,7.90
2022-12-01T04:43:00.594Z,6.80
2022-12-01T04:48:03.461Z,11.40
2022-12-01T04:53:06.414Z,10.50
2022-12-01T04:58:09.247Z,10.00
2022-12-01T05:03:15.072Z,8.60
2022-12-01T05:08:18.255Z,10.40
2022-12-01T05:13:21.067Z,8.40
2022-12-01T05:18:23.948Z,12.40
2022-12-01T05:23:29.151Z,15.30
2022-12-01T05:28:32.767Z,18.00
2022-12-01T05:33:35.559Z,13.90
2022-12-01T05:38:38.307Z,19.00
2022-12-01T05:43:41.156Z,17.70
2022-12-01T05:48:43.988Z,11.80
2022-12-01T05:53:46.796Z,13.20
2022-12-01T05:58:49.582Z,17.80
2022-12-01T06:03:53.284Z,16.10
2022-12-01T06:08:56.081Z,13.60
2022-12-01T06:13:58.853Z,17.10
2022-12-01T06:19:01.631Z,15.80
2022-12-01T06:24:04.559Z,16.10
2022-12-01T06:29:07.305Z,15.00
2022-12-01T06:34:10.641Z,14.00
2022-12-01T06:39:15.861Z,10.80
2022-12-01T06:44:18.836Z,14.60
2022-12-01T06:49:21.664Z,16.10
2022-12-01T06:54:24.547Z,14.60
2022-12-01T06:59:27.543Z,18.80
2022-12-01T07:04:31.077Z,16.40
2022-12-01T07:09:34.192Z,17.80
2022-12-01T07:14:37.890Z,19.20
2022-12-01T07:19:40.805Z,32.20
2022-12-01T07:24:43.647Z,27.50
2022-12-01T07:29:47.288Z,18.60
2022-12-01T07:34:50.199Z,17.60
2022-12-01T07:39:53.038Z,18.00
2022-12-01T07:44:55.888Z,17.50
2022-12-01T07:49:58.832Z,14.20
2022-12-01T07:55:01.673Z,18.50
2022-12-01T08:00:07.730Z,21.20
2022-12-01T08:05:10.656Z,19.50
2022-12-01T08:10:13.519Z,22.60
2022-12-01T08:15:17.237Z,21.90
2022-12-01T08:20:24.001Z,19.00
2022-12-01T08:30:32.163Z,22.10
2022-12-01T08:35:37.751Z,22.10
2022-12-01T08:40:40.778Z,25.70
2022-12-01T08:45:43.873Z,22.40
2022-12-01T08:50:46.867Z,21.60
2022-12-01T08:55:51.461Z,20.80
2022-12-01T09:01:16.167Z,17.90
2022-12-01T09:06:22.935Z,16.10
2022-12-01T09:11:29.527Z,22.50
2022-12-01T09:16:32.797Z,21.20
2022-12-01T09:21:37.578Z,22.00
2022-12-01T09:26:41.256Z,14.40
2022-12-01T09:31:47.240Z,23.80
2022-12-01T09:36:51.615Z,20.50
2022-12-01T09:41:58.018Z,19.00
2022-12-01T09:47:06.389Z,23.70
2022-12-01T09:52:13.323Z,18.00
2022-12-01T09:57:37.644Z,26.80
2022-12-01T10:02:54.554Z,16.70
2022-12-01T10:08:06.630Z,20.60
2022-12-01T10:13:25.845Z,21.70
2022-12-01T10:19:07.294Z,23.20
2022-12-01T10:24:35.270Z,18.30
2022-12-01T10:29:54.796Z,22.90
2022-12-01T10:34:57.881Z,14.70
2022-12-01T10:40:00.970Z,16.80
2022-12-01T10:45:10.772Z,15.70
2022-12-01T10:50:31.236Z,26.10
2022-12-01T10:55:42.075Z,31.70
2022-12-01T11:01:01.247Z,31.00
2022-12-01T11:06:06.856Z,21.50
2022-12-01T11:11:22.532Z,29.50
2022-12-01T11:16:56.309Z,30.90
2022-12-01T11:22:19.132Z,23.50
2022-12-01T11:27:55.745Z,22.40
2022-12-01T11:33:01.726Z,20.00
2022-12-01T11:43:38.293Z,22.50
2022-12-01T11:48:57.968Z,21.20
2022-12-01T11:54:15.467Z,21.60
2022-12-01T11:59:23.230Z,22.20
2022-12-01T12:04:35.699Z,20.20
2022-12-01T12:10:13.191Z,19.90
2022-12-01T12:15:28.029Z,20.10
2022-12-01T12:20:41.113Z,19.90
2022-12-01T12:25:55.896Z,16.30
2022-12-01T12:31:09.216Z,16.80
2022-12-01T12:36:18.614Z,16.60
2022-12-01T12:41:44.404Z,22.70
2022-12-01T12:47:00.930Z,17.90
2022-12-01T12:52:10.036Z,23.70
2022-12-01T12:57:49.397Z,18.10
2022-12-01T13:03:29.224Z,20.50
2022-12-01T13:08:56.150Z,24.20
2022-12-01T13:14:07.977Z,16.00
2022-12-01T13:19:25.246Z,25.90
2022-12-01T13:29:46.130Z,21.40
2022-12-01T13:34:49.229Z,25.80
2022-12-01T13:39:55.309Z,23.50
2022-12-01T13:45:01.962Z,21.70
2022-12-01T13:50:35.984Z,21.80
2022-12-01T13:56:00.676Z,19.60
2022-12-01T14:01:22.505Z,24.90
2022-12-01T14:06:28.534Z,23.10
2022-12-01T14:11:34.620Z,22.80
2022-12-01T14:16:58.997Z,26.80
2022-12-01T14:22:02.773Z,28.00
2022-12-01T14:27:06.897Z,28.60
2022-12-01T14:32:09.904Z,24.10
2022-12-01T14:37:17.056Z,28.60
2022-12-01T14:48:05.751Z,22.10
2022-12-01T14:53:18.778Z,24.20
2022-12-01T14:58:26.083Z,25.40
2022-12-01T15:03:34.831Z,27.70
2022-12-01T15:08:43.558Z,27.70
2022-12-01T15:13:52.651Z,28.10
2022-12-01T15:18:55.658Z,26.30
2022-12-01T15:24:07.987Z,26.30
2022-12-01T15:29:31.433Z,17.30
2022-12-01T15:34:44.223Z,23.20
2022-12-01T15:39:51.230Z,23.00
2022-12-01T15:50:37.691Z,12.90
2022-12-01T15:55:47.856Z,25.00
2022-12-01T16:01:12.560Z,32.40
2022-12-01T16:06:16.439Z,30.10
2022-12-01T16:11:21.745Z,34.20
2022-12-01T16:16:44.912Z,38.30
2022-12-01T16:21:51.924Z,31.70
2022-12-01T16:27:05.967Z,26.20
2022-12-01T16:32:20.768Z,38.90
2022-12-01T16:37:24.678Z,23.60
2022-12-01T16:42:27.566Z,41.80
2022-12-01T16:47:32.001Z,38.00
2022-12-01T16:52:50.044Z,39.90
2022-12-01T16:57:53.056Z,30.80
2022-12-01T17:02:57.336Z,29.90
2022-12-01T17:08:00.424Z,23.60
2022-12-01T17:13:03.291Z,27.70
2022-12-01T17:18:06.053Z,29.40
2022-12-01T17:23:09.378Z,26.50
2022-12-01T17:28:12.363Z,34.50
2022-12-01T17:33:15.684Z,28.20
2022-12-01T17:38:18.506Z,31.70
2022-12-01T17:43:21.481Z,32.50
2022-12-01T17:48:24.510Z,29.20
2022-12-01T17:53:27.594Z,28.10
2022-12-01T17:58:30.503Z,28.90
2022-12-01T18:03:33.298Z,30.90
2022-12-01T18:08:36.874Z,32.70
2022-12-01T18:13:42.100Z,29.40
2022-12-01T18:18:45.585Z,22.80
2022-12-01T18:24:00.732Z,29.00
2022-12-01T18:29:28.751Z,25.10
2022-12-01T18:34:32.203Z,25.50
2022-12-01T18:39:37.983Z,28.60
2022-12-01T18:44:42.405Z,29.90
2022-12-01T18:49:45.131Z,28.10
2022-12-01T18:54:48.204Z,27.50
2022-12-01T18:59:52.453Z,26.40
2022-12-01T19:04:55.330Z,31.10
2022-12-01T19:09:58.133Z,26.80
2022-12-01T19:15:00.926Z,27.50
2022-12-01T19:20:06.488Z,26.10
2022-12-01T19:25:11.596Z,22.90
2022-12-01T19:30:16.043Z,29.40
2022-12-01T19:35:19.191Z,23.60
2022-12-01T19:40:22.218Z,23.70
2022-12-01T19:45:28.851Z,21.00
2022-12-01T19:50:35.700Z,19.80
2022-12-01T19:55:39.145Z,25.00
2022-12-01T20:00:44.137Z,22.00
2022-12-01T20:05:47.859Z,21.40
2022-12-01T20:10:51.712Z,23.20
2022-12-01T20:15:54.455Z,22.20
2022-12-01T20:21:03.555Z,30.40
2022-12-01T20:26:07.664Z,21.00
2022-12-01T20:31:16.738Z,18.40
2022-12-01T20:36:20.681Z,25.10
2022-12-01T20:41:23.439Z,25.00
2022-12-01T20:46:26.296Z,28.80
2022-12-01T20:51:33.139Z,26.00
2022-12-01T20:56:36.025Z,28.70
2022-12-01T21:01:38.908Z,25.70
2022-12-01T21:06:42.300Z,23.60
2022-12-01T21:12:08.510Z,26.60
2022-12-01T21:17:25.884Z,34.60
2022-12-01T21:27:31.453Z,34.20
2022-12-01T21:32:35.689Z,24.70
2022-12-01T21:37:40.583Z,19.60
2022-12-01T21:42:43.474Z,24.30
2022-12-01T21:47:46.263Z,31.50
2022-12-01T21:52:50.108Z,33.20
2022-12-01T21:57:53.865Z,24.60
2022-12-01T22:03:08.787Z,23.60
2022-12-01T22:08:14.577Z,26.40
2022-12-01T22:13:18.745Z,24.10
2022-12-01T22:18:32.422Z,39.90
2022-12-01T22:23:35.467Z,28.50
2022-12-01T22:28:38.244Z,45.90
2022-12-01T22:33:41.567Z,24.00
2022-12-01T22:38:44.500Z,21.40
2022-12-01T22:43:54.948Z,20.40
2022-12-01T22:48:59.428Z,27.60
2022-12-01T22:54:14.428Z,32.80
2022-12-01T22:59:43.371Z,25.70
2022-12-01T23:04:46.312Z,25.10
2022-12-01T23:09:49.100Z,22.20
2022-12-01T23:14:56.639Z,35.40
2022-12-01T23:20:24.679Z,24.80
2022-12-01T23:25:28.549Z,29.50
2022-12-01T23:30:31.898Z,25.90
2022-12-01T23:36:06.756Z,21.60
2022-12-01T23:41:32.823Z,7.20
2022-12-01T23:46:36.687Z,19.40
2022-12-01T23:51:53.163Z,20.30
2022-12-01T23:57:00.653Z,25.40
